Weather History for Big Bear City, CA

Change the Weather History Date:

Tuesday, March 4, 2014

  Actual Average (KBUO) Record (KBUO)
Temperature  
Mean Temperature 40 °F -  
Max Temperature 50 °F 59 °F 62 °F (1997)
Min Temperature 30 °F 40 °F 42 °F (1997)
Degree Days  
Heating Degree Days 25    
Moisture  
Dew Point 29 °F    
Average Humidity 73    
Maximum Humidity 100    
Minimum Humidity 32    
Precipitation  
Precipitation 0.00 in - - ()
Sea Level Pressure  
Sea Level Pressure 30.12 in    
Wind  
Wind Speed 2 mph (WNW)    
Max Wind Speed 12 mph    
Max Gust Speed 17 mph    
Visibility 10 miles    
Events      
Averages and records for this station are not official NWS values.
T = Trace of Precipitation, MM = Missing Value Source: NWS Daily Summary

Daily Weather History Graph

Daily Weather History Graph

Search for Another Location

Airport:

Trip Planner

Search our weather history database for the weather conditions in past years. The results will help you decide how hot, cold, wet, or windy it might be!

Date:

Astronomy

Mar. 04, 2014 Rise Set
Actual Time 6:12 AM PST 5:46 PM PST
Civil Twilight 5:47 AM PST 6:11 PM PST
Nautical Twilight 5:18 AM PST 6:40 PM PST
Astronomical Twilight 4:49 AM PST 7:09 PM PST
Moon 8:12 AM PST (3/4) 9:45 PM PST (3/4)
Length of Visible Light 12h 24m
Length of Day
11h 33m
Waxing Crescent, 15% of the Moon is Illuminated
Mar 4
Waxing Crescent
Mar 8
First Quarter
Mar 16
Full
Mar 23
Last Quarter
Mar 30
New

Hourly Weather History & Observations

Time (PST) Temp. Windchill Dew Point Humidity Pressure Visibility Wind Dir Wind Speed Gust Speed Precip Events Conditions
12:15 AM 32.0 °F - 30.2 °F 93% 30.14 in 1.5 mi Calm Calm - N/A   Overcast
12:35 AM 32.0 °F - 30.2 °F 93% 30.14 in 10.0 mi Calm Calm - N/A   Scattered Clouds
12:55 AM 32.0 °F - 30.2 °F 93% 30.13 in 10.0 mi Calm Calm - N/A   Clear
1:15 AM 32.0 °F - 30.2 °F 93% 30.12 in 10.0 mi Calm Calm - N/A   Clear
1:35 AM 32.0 °F - 30.2 °F 93% 30.12 in 10.0 mi Calm Calm - N/A   Clear
1:55 AM 30.2 °F - 30.2 °F 100% 30.12 in 10.0 mi Calm Calm - N/A   Clear
2:15 AM 30.2 °F 26.7 °F 30.2 °F 100% 30.11 in 10.0 mi WSW 3.5 mph - N/A   Clear
2:35 AM 30.2 °F 26.7 °F 30.2 °F 100% 30.10 in 10.0 mi WSW 3.5 mph - N/A   Clear
2:55 AM 32.0 °F - 30.2 °F 93% 30.11 in 10.0 mi Calm Calm - N/A   Clear
3:15 AM 32.0 °F - 30.2 °F 93% 30.10 in 10.0 mi Calm Calm - N/A   Clear
3:35 AM 30.2 °F - 28.4 °F 93% 30.09 in 10.0 mi Calm Calm - N/A   Clear
3:55 AM 30.2 °F - 28.4 °F 93% 30.09 in 10.0 mi Calm Calm - N/A   Clear
4:15 AM 30.2 °F - 30.2 °F 100% 30.09 in 10.0 mi Calm Calm - N/A   Clear
4:35 AM 30.2 °F - 28.4 °F 93% 30.09 in 10.0 mi Calm Calm - N/A   Clear
4:55 AM 30.2 °F - 28.4 °F 93% 30.08 in 10.0 mi Calm Calm - N/A   Clear
5:15 AM 30.2 °F - 28.4 °F 93% 30.08 in 10.0 mi Calm Calm - N/A   Clear
5:35 AM 30.2 °F - 28.4 °F 93% 30.08 in 10.0 mi Calm Calm - N/A   Clear
5:55 AM 30.2 °F - 28.4 °F 93% 30.08 in 10.0 mi Calm Calm - N/A   Clear
6:15 AM 30.2 °F - 28.4 °F 93% 30.08 in 10.0 mi Calm Calm - N/A   Clear
6:35 AM 30.2 °F - 28.4 °F 93% 30.07 in 10.0 mi Calm Calm - N/A   Clear
6:55 AM 30.2 °F - 28.4 °F 93% 30.08 in 10.0 mi Calm Calm - N/A   Clear
7:15 AM 30.2 °F - 30.2 °F 100% 30.08 in 10.0 mi Calm Calm - N/A   Clear
7:35 AM 32.0 °F - 30.2 °F 93% 30.09 in 10.0 mi Calm Calm - N/A   Clear
7:55 AM 33.8 °F 29.6 °F 32.0 °F 93% 30.09 in 10.0 mi West 4.6 mph - N/A   Clear
8:15 AM 35.6 °F 30.7 °F 32.0 °F 87% 30.09 in 10.0 mi West 5.8 mph - N/A   Clear
8:35 AM 39.2 °F 35.9 °F 32.0 °F 75% 30.09 in 10.0 mi WSW 4.6 mph - N/A   Clear
8:55 AM 44.6 °F 41.4 °F 28.4 °F 53% 30.09 in 10.0 mi WSW 5.8 mph - N/A   Clear
9:15 AM 44.6 °F 40.7 °F 30.2 °F 57% 30.10 in 10.0 mi WSW 6.9 mph - N/A   Clear
9:35 AM 46.4 °F 42.9 °F 32.0 °F 57% 30.10 in 10.0 mi WSW 6.9 mph - N/A   Clear
9:55 AM 46.4 °F 42.9 °F 32.0 °F 57% 30.09 in 10.0 mi West 6.9 mph - N/A   Clear
10:15 AM 46.4 °F 41.9 °F 32.0 °F 57% 30.10 in 10.0 mi WSW 9.2 mph 17.3 mph N/A   Clear
10:35 AM 46.4 °F 41.1 °F 32.0 °F 57% 30.10 in 10.0 mi West 11.5 mph 17.3 mph N/A   Clear
10:55 AM 46.4 °F 41.9 °F 32.0 °F 57% 30.11 in 10.0 mi WSW 9.2 mph - N/A   Clear
11:15 AM 46.4 °F 42.4 °F 32.0 °F 57% 30.11 in 10.0 mi West 8.1 mph - N/A   Clear
11:35 AM 46.4 °F 41.9 °F 32.0 °F 57% 30.11 in 10.0 mi WSW 9.2 mph - N/A   Clear
11:55 AM 48.2 °F - 33.8 °F 58% 30.10 in 10.0 mi WSW 5.8 mph - N/A   Clear
12:15 PM 48.2 °F - 32.0 °F 54% 30.10 in 10.0 mi NNE 4.6 mph - N/A   Clear
12:35 PM 50.0 °F - 30.2 °F 47% 30.09 in 10.0 mi NW 6.9 mph 16.1 mph N/A   Clear
12:55 PM 50.0 °F - 28.4 °F 43% 30.10 in 10.0 mi NNE 6.9 mph 17.3 mph N/A   Clear
1:15 PM 50.0 °F - 28.4 °F 43% 30.11 in 10.0 mi NW 5.8 mph - N/A   Clear
1:35 PM 46.4 °F 42.4 °F 30.2 °F 53% 30.10 in 10.0 mi NNW 8.1 mph 17.3 mph N/A   Clear
1:55 PM 50.0 °F - 28.4 °F 43% 30.11 in 10.0 mi North 3.5 mph - N/A   Clear
2:15 PM 50.0 °F - 28.4 °F 43% 30.10 in 10.0 mi North 4.6 mph - N/A   Clear
2:35 PM 48.2 °F - 28.4 °F 46% 30.11 in 10.0 mi North 5.8 mph 17.3 mph N/A   Clear
2:55 PM 48.2 °F - 28.4 °F 46% 30.09 in 10.0 mi North 8.1 mph - N/A   Clear
3:15 PM 50.0 °F - 26.6 °F 40% 30.09 in 10.0 mi NNE 5.8 mph - N/A   Clear
3:35 PM 48.2 °F - 26.6 °F 43% 30.10 in 10.0 mi NNW 3.5 mph - N/A   Clear
3:55 PM 46.4 °F - 24.8 °F 43% 30.11 in 10.0 mi Calm Calm - N/A   Clear
4:15 PM 48.2 °F - 19.4 °F 32% 30.11 in 10.0 mi NE 9.2 mph - N/A   Clear
4:35 PM 46.4 °F 42.4 °F 23.0 °F 40% 30.12 in 10.0 mi North 8.1 mph - N/A   Clear
4:55 PM 44.6 °F - 28.4 °F 53% 30.13 in 10.0 mi Calm Calm - N/A   Clear
5:15 PM 44.6 °F 42.2 °F 26.6 °F 49% 30.13 in 10.0 mi ENE 4.6 mph - N/A   Clear
5:35 PM 44.6 °F 41.4 °F 28.4 °F 53% 30.13 in 10.0 mi East 5.8 mph - N/A   Clear
5:55 PM 42.8 °F - 30.2 °F 61% 30.14 in 10.0 mi Calm Calm - N/A   Clear
6:15 PM 41.0 °F 38.0 °F 30.2 °F 65% 30.15 in 10.0 mi ESE 4.6 mph - N/A   Clear
6:35 PM 41.0 °F 38.0 °F 30.2 °F 65% 30.16 in 10.0 mi East 4.6 mph - N/A   Clear
6:55 PM 41.0 °F - 30.2 °F 65% 30.17 in 10.0 mi Calm Calm - N/A   Clear
7:15 PM 35.6 °F - 30.2 °F 81% 30.17 in 10.0 mi Calm Calm - N/A   Clear
7:35 PM 35.6 °F - 30.2 °F 81% 30.17 in 10.0 mi Calm Calm - N/A   Clear
7:55 PM 33.8 °F - 30.2 °F 87% 30.17 in 10.0 mi Calm Calm - N/A   Clear
8:15 PM 33.8 °F - 30.2 °F 87% 30.18 in 10.0 mi Calm Calm - N/A   Clear
8:35 PM 33.8 °F - 28.4 °F 81% 30.19 in 10.0 mi Calm Calm - N/A   Clear
8:55 PM 32.0 °F - 28.4 °F 87% 30.19 in 10.0 mi Calm Calm - N/A   Clear
9:15 PM 32.0 °F - 26.6 °F 80% 30.19 in 10.0 mi Calm Calm - N/A   Clear
9:35 PM 32.0 °F - 26.6 °F 80% 30.20 in 10.0 mi Calm Calm - N/A   Clear
9:55 PM 32.0 °F - 26.6 °F 80% 30.21 in 10.0 mi Calm Calm - N/A   Clear
10:15 PM 32.0 °F - 26.6 °F 80% 30.21 in 10.0 mi Calm Calm - N/A   Clear
10:35 PM 30.2 °F - 26.6 °F 86% 30.20 in 10.0 mi Calm Calm - N/A   Clear
10:55 PM 30.2 °F - 26.6 °F 86% 30.21 in 10.0 mi Calm Calm - N/A   Clear
11:15 PM 30.2 °F - 26.6 °F 86% 30.21 in 10.0 mi Calm Calm - N/A   Clear
11:35 PM 30.2 °F - 26.6 °F 86% 30.21 in 10.0 mi Calm Calm - N/A   Clear
11:55 PM 30.2 °F - 24.8 °F 80% 30.20 in 10.0 mi Calm Calm - N/A   Clear